createdAt,value
2023-04-25T00:03:27.977Z,100458.16
2023-04-25T00:08:33.370Z,100463.75
2023-04-25T00:13:38.581Z,100457.81
2023-04-25T00:18:44.393Z,100476.31
2023-04-25T00:23:50.009Z,100455.81
2023-04-25T00:28:55.154Z,100452.16
2023-04-25T00:34:00.170Z,100439.50
2023-04-25T00:39:07.321Z,100448.13
2023-04-25T00:44:14.569Z,100445.09
2023-04-25T00:49:19.782Z,100437.69
2023-04-25T00:54:25.093Z,100443.75
2023-04-25T00:59:34.179Z,100431.50
2023-04-25T01:04:39.221Z,100426.53
2023-04-25T01:09:45.621Z,100423.78
2023-04-25T01:14:50.642Z,100418.19
2023-04-25T01:19:56.076Z,100427.03
2023-04-25T01:25:02.503Z,100423.38
2023-04-25T01:30:09.521Z,100410.28
2023-04-25T01:35:15.138Z,100403.38
2023-04-25T01:40:22.009Z,100421.75
2023-04-25T01:45:26.867Z,100429.56
2023-04-25T01:50:32.537Z,100406.09
2023-04-25T01:55:37.615Z,100401.91
2023-04-25T02:00:47.067Z,100385.28
2023-04-25T02:05:52.298Z,100378.06
2023-04-25T02:10:57.780Z,100379.06
2023-04-25T02:16:09.188Z,100400.59
2023-04-25T02:21:17.579Z,100371.38
2023-04-25T02:26:23.252Z,100385.56
2023-04-25T02:31:29.085Z,100373.72
2023-04-25T02:36:37.874Z,100380.28
2023-04-25T02:41:43.016Z,100368.47
2023-04-25T02:46:48.293Z,100352.97
2023-04-25T02:51:54.139Z,100354.75
2023-04-25T02:56:59.253Z,100352.16
2023-04-25T03:02:11.478Z,100339.50
2023-04-25T03:07:16.837Z,100346.72
2023-04-25T03:12:22.077Z,100347.38
2023-04-25T03:17:27.423Z,100341.09
2023-04-25T03:22:32.704Z,100345.31
2023-04-25T03:27:37.805Z,100330.28
2023-04-25T03:32:44.386Z,100321.38
2023-04-25T03:37:54.713Z,100319.75
2023-04-25T03:43:06.291Z,100328.59
2023-04-25T03:48:12.452Z,100317.28
2023-04-25T03:53:17.634Z,100322.66
2023-04-25T03:58:42.332Z,100328.84
2023-04-25T04:03:47.525Z,100329.19
2023-04-25T04:08:52.979Z,100342.75
2023-04-25T04:14:00.599Z,100345.44
2023-04-25T04:19:06.597Z,100344.59
2023-04-25T04:24:14.171Z,100354.66
2023-04-25T04:29:34.669Z,100348.06
2023-04-25T04:34:57.628Z,100346.41
2023-04-25T04:40:08.285Z,100352.13
2023-04-25T04:45:21.209Z,100350.25
2023-04-25T04:50:50.476Z,100388.31
2023-04-25T04:56:03.099Z,100356.63
2023-04-25T05:01:08.396Z,100349.38
2023-04-25T05:06:32.923Z,100370.19
2023-04-25T05:12:00.722Z,100374.91
2023-04-25T05:17:23.864Z,100381.69
2023-04-25T05:22:52.088Z,100399.81
2023-04-25T05:28:02.768Z,100403.13
2023-04-25T05:33:30.249Z,100387.44
2023-04-25T05:38:37.171Z,100425.09
2023-04-25T05:44:06.249Z,100387.59
2023-04-25T05:49:28.353Z,100383.53
2023-04-25T05:55:00.839Z,100384.53
2023-04-25T06:00:12.242Z,100392.53
2023-04-25T06:05:21.531Z,100408.16
2023-04-25T06:10:28.132Z,100413.28
2023-04-25T06:15:34.930Z,100444.44
2023-04-25T06:20:40.008Z,100414.78
2023-04-25T06:25:46.249Z,100418.00
2023-04-25T06:30:51.815Z,100397.56
2023-04-25T06:35:59.017Z,100426.53
2023-04-25T06:41:07.548Z,100444.59
2023-04-25T06:46:15.883Z,100425.19
2023-04-25T06:51:27.373Z,100417.50
2023-04-25T06:56:34.445Z,100425.59
2023-04-25T07:01:46.805Z,100426.06
2023-04-25T07:07:00.248Z,100468.47
2023-04-25T07:12:17.216Z,100433.38
2023-04-25T07:17:24.330Z,100451.53
2023-04-25T07:22:30.175Z,100434.63
2023-04-25T07:27:35.451Z,100447.88
2023-04-25T07:32:49.736Z,100432.06
2023-04-25T07:37:54.130Z,100438.97
2023-04-25T07:43:00.261Z,100458.38
2023-04-25T07:48:22.139Z,100464.16
2023-04-25T07:53:31.390Z,100472.63
2023-04-25T07:58:41.857Z,100464.97
2023-04-25T08:03:50.652Z,100487.94
2023-04-25T08:09:12.658Z,100499.25
2023-04-25T08:14:20.293Z,100526.25
2023-04-25T08:19:27.447Z,100507.78
2023-04-25T08:24:34.022Z,100525.69
2023-04-25T08:29:39.740Z,100522.66
2023-04-25T08:34:46.929Z,100535.97
2023-04-25T08:39:57.965Z,100523.66
2023-04-25T08:45:45.293Z,100546.31
2023-04-25T08:51:01.080Z,100536.00
2023-04-25T08:56:06.658Z,100537.25
2023-04-25T09:01:15.140Z,100533.16
2023-04-25T09:06:30.083Z,100547.53
2023-04-25T09:11:36.278Z,100539.72
2023-04-25T09:17:02.542Z,100548.78
2023-04-25T09:22:24.617Z,100548.97
2023-04-25T09:27:32.735Z,100540.53
2023-04-25T09:32:48.349Z,100552.88
2023-04-25T09:37:55.285Z,100533.75
2023-04-25T09:43:23.848Z,100530.88
2023-04-25T09:48:32.667Z,100530.41
2023-04-25T09:53:45.415Z,100551.69
2023-04-25T09:58:57.473Z,100544.91
2023-04-25T10:04:04.461Z,100538.06
2023-04-25T10:09:36.372Z,100552.59
2023-04-25T10:14:42.574Z,100561.16
2023-04-25T10:19:48.263Z,100561.94
2023-04-25T10:24:53.911Z,100582.78
2023-04-25T10:30:06.983Z,100571.56
2023-04-25T10:35:20.699Z,100580.59
2023-04-25T10:40:25.763Z,100581.28
2023-04-25T10:45:30.917Z,100585.31
2023-04-25T10:50:44.862Z,100597.13
2023-04-25T10:55:54.175Z,100634.31
2023-04-25T11:01:00.743Z,100622.13
2023-04-25T11:06:08.393Z,100656.25
2023-04-25T11:11:13.618Z,100656.94
2023-04-25T11:16:27.494Z,100641.50
2023-04-25T11:21:35.033Z,100654.28
2023-04-25T11:26:40.252Z,100659.91
2023-04-25T11:31:49.334Z,100676.78
2023-04-25T11:36:55.436Z,100684.22
2023-04-25T11:42:01.179Z,100697.59
2023-04-25T11:47:06.734Z,100709.19
2023-04-25T11:52:12.130Z,100716.41
2023-04-25T11:57:18.588Z,100724.63
2023-04-25T12:02:30.286Z,100759.84
2023-04-25T12:07:35.350Z,100753.13
2023-04-25T12:12:41.551Z,100767.19
2023-04-25T12:17:55.068Z,100778.84
2023-04-25T12:23:00.769Z,100794.75
2023-04-25T12:28:26.274Z,100794.75
2023-04-25T12:33:42.542Z,100798.44
2023-04-25T12:38:47.715Z,100803.94
2023-04-25T12:43:52.619Z,100813.13
2023-04-25T12:49:02.705Z,100823.13
2023-04-25T12:54:14.457Z,100840.56
2023-04-25T12:59:20.289Z,100845.88
2023-04-25T13:04:25.794Z,100860.47
2023-04-25T13:09:30.884Z,100863.13
2023-04-25T13:14:36.214Z,100865.97
2023-04-25T13:19:41.886Z,100869.44
2023-04-25T13:24:47.063Z,100880.09
2023-04-25T13:29:51.763Z,100886.91
2023-04-25T13:34:56.674Z,100892.38
2023-04-25T13:40:07.491Z,100898.00
2023-04-25T13:45:12.539Z,100894.22
2023-04-25T13:50:18.536Z,100892.38
2023-04-25T13:55:23.669Z,100903.84
2023-04-25T14:00:28.882Z,100903.00
2023-04-25T14:05:34.069Z,100896.19
2023-04-25T14:10:40.544Z,100907.13
2023-04-25T14:15:47.080Z,100912.69
2023-04-25T14:20:52.387Z,100915.84
2023-04-25T14:25:58.804Z,100940.38
2023-04-25T14:31:03.019Z,100934.19
2023-04-25T14:36:09.644Z,100945.75
2023-04-25T14:41:14.377Z,100935.94
2023-04-25T14:46:19.652Z,100934.88
2023-04-25T14:51:24.753Z,100947.25
2023-04-25T14:56:29.913Z,100957.81
2023-04-25T15:01:35.483Z,100947.16
2023-04-25T15:06:42.371Z,100954.38
2023-04-25T15:11:47.648Z,100946.19
2023-04-25T15:16:55.613Z,100949.22
2023-04-25T15:22:05.327Z,100962.44
2023-04-25T15:27:14.616Z,100967.13
2023-04-25T15:32:20.622Z,100982.41
2023-04-25T15:37:25.668Z,100975.53
2023-04-25T15:42:30.928Z,100980.72
2023-04-25T15:47:38.086Z,100981.50
2023-04-25T15:52:43.272Z,100987.25
2023-04-25T15:57:49.104Z,100992.88
2023-04-25T16:02:54.418Z,101003.34
2023-04-25T16:07:59.539Z,100995.22
2023-04-25T16:13:05.127Z,101003.75
2023-04-25T16:18:10.208Z,100996.16
2023-04-25T16:23:15.447Z,101007.72
2023-04-25T16:28:21.133Z,101004.66
2023-04-25T16:33:26.166Z,100996.31
2023-04-25T16:38:32.653Z,101006.44
2023-04-25T16:43:37.970Z,101010.09
2023-04-25T16:48:42.979Z,101009.25
2023-04-25T16:53:50.988Z,101012.00
2023-04-25T16:58:55.494Z,101003.81
2023-04-25T17:04:00.922Z,101001.31
2023-04-25T17:09:07.368Z,100987.41
2023-04-25T17:14:15.371Z,100989.66
2023-04-25T17:19:20.429Z,100988.56
2023-04-25T17:24:25.447Z,100992.41
2023-04-25T17:29:30.479Z,101028.22
2023-04-25T17:34:35.619Z,101005.19
2023-04-25T17:39:40.687Z,101006.97
2023-04-25T17:44:45.927Z,100999.03
2023-04-25T17:49:51.128Z,100990.28
2023-04-25T17:54:56.157Z,100988.72
2023-04-25T18:00:01.427Z,100983.13
2023-04-25T18:05:16.814Z,100980.63
2023-04-25T18:10:22.596Z,100985.06
2023-04-25T18:15:27.789Z,100987.84
2023-04-25T18:20:33.617Z,100964.28
2023-04-25T18:25:38.395Z,100971.75
2023-04-25T18:30:45.841Z,100974.94
2023-04-25T18:35:58.183Z,100963.63
2023-04-25T18:41:15.622Z,100973.53
2023-04-25T18:46:31.036Z,100974.13
2023-04-25T18:51:36.298Z,100964.34
2023-04-25T18:56:41.389Z,100957.63
2023-04-25T19:01:48.388Z,100949.41
2023-04-25T19:06:53.572Z,100941.63
2023-04-25T19:11:58.933Z,100950.25
2023-04-25T19:17:03.998Z,100949.16
2023-04-25T19:22:09.861Z,100948.81
2023-04-25T19:27:15.383Z,100926.13
2023-04-25T19:32:20.761Z,100921.69
2023-04-25T19:37:25.972Z,100921.22
2023-04-25T19:42:30.896Z,100913.66
2023-04-25T19:47:39.616Z,100908.19
2023-04-25T19:52:44.693Z,100908.19
2023-04-25T19:57:49.880Z,100925.81
2023-04-25T20:02:54.927Z,100922.53
2023-04-25T20:08:00.247Z,100924.84
2023-04-25T20:13:04.525Z,100918.75
2023-04-25T20:18:10.129Z,100909.94
2023-04-25T20:23:15.837Z,100917.47
2023-04-25T20:28:23.416Z,100941.28
2023-04-25T20:33:28.363Z,100909.28
2023-04-25T20:38:34.034Z,100906.91
2023-04-25T20:43:39.512Z,100904.63
2023-04-25T20:48:44.372Z,100915.19
2023-04-25T20:53:49.427Z,100955.56
2023-04-25T20:58:57.940Z,100940.16
2023-04-25T21:04:03.097Z,100983.53
2023-04-25T21:09:08.802Z,100965.78
2023-04-25T21:14:13.811Z,100958.44
2023-04-25T21:19:18.907Z,100956.03
2023-04-25T21:24:23.384Z,100965.22
2023-04-25T21:29:28.595Z,100959.34
2023-04-25T21:34:33.708Z,100965.31
2023-04-25T21:39:38.713Z,100976.63
2023-04-25T21:44:43.583Z,100976.09
2023-04-25T21:49:48.519Z,100970.47
2023-04-25T21:54:53.751Z,100970.84
2023-04-25T21:59:58.979Z,100977.41
2023-04-25T22:05:04.169Z,100976.94
2023-04-25T22:10:09.907Z,100999.75
2023-04-25T22:15:14.927Z,100993.31
2023-04-25T22:20:25.336Z,101000.84
2023-04-25T22:25:31.100Z,101002.19
2023-04-25T22:30:36.778Z,101001.84
2023-04-25T22:35:42.059Z,101004.09
2023-04-25T22:40:49.118Z,101025.34
2023-04-25T22:45:54.225Z,101027.47
2023-04-25T22:51:07.331Z,101041.44
2023-04-25T22:56:12.713Z,101041.28
2023-04-25T23:01:19.442Z,101060.25
2023-04-25T23:06:24.482Z,101050.13
2023-04-25T23:11:30.957Z,101050.41
2023-04-25T23:16:38.043Z,101050.59
2023-04-25T23:21:43.544Z,101048.94
2023-04-25T23:26:48.643Z,101045.56
2023-04-25T23:31:53.700Z,101054.53
2023-04-25T23:36:59.432Z,101033.41
2023-04-25T23:42:04.267Z,101028.75
2023-04-25T23:47:09.364Z,101019.06
2023-04-25T23:52:17.261Z,101024.09
2023-04-25T23:57:22.112Z,101017.84
